Time;durP1;ratioP1;P1;durP2;ratioP2;P2;SDS_P1;SDS_P2;PMS_P1;PMS_P2;Temp;Humidity;BMP_temperature;BMP_pressure;BME280_temperature;BME280_humidity;BME280_pressure;Samples;Min_cycle;Max_cycle;Signal;HPM_P1;HPM_P2
2022/02/27 00:00:13;;;;;;;8.30;7.53;;;2.00;99.90;;;;;;5047021;28;20286;-81
2022/02/27 00:02:45;;;;;;;13.75;8.43;;;1.70;99.90;;;;;;5044289;28;20199;-81
2022/02/27 00:05:14;;;;;;;17.58;8.02;;;1.60;99.90;;;;;;5028074;28;20612;-80
2022/02/27 00:07:40;;;;;;;15.63;8.30;;;1.50;99.90;;;;;;5045302;28;20274;-82
2022/02/27 00:10:06;;;;;;;11.73;9.57;;;1.60;99.90;;;;;;5044744;28;20290;-81
2022/02/27 00:12:35;;;;;;;14.20;8.85;;;1.60;99.90;;;;;;5047093;28;20183;-81
2022/02/27 00:15:04;;;;;;;11.80;8.10;;;1.40;99.90;;;;;;5045790;28;20209;-80
2022/02/27 00:17:30;;;;;;;13.25;7.75;;;1.50;99.90;;;;;;5046520;28;20301;-81
2022/02/27 00:19:55;;;;;;;14.30;7.60;;;1.50;99.90;;;;;;5044648;28;20690;-81
2022/02/27 00:22:21;;;;;;;12.63;8.33;;;1.50;99.90;;;;;;5046211;28;20475;-80
2022/02/27 00:24:47;;;;;;;20.07;9.60;;;1.90;99.90;;;;;;5044653;28;20207;-81
2022/02/27 00:27:12;;;;;;;13.90;8.80;;;1.50;99.90;;;;;;5046319;28;20167;-80
2022/02/27 00:29:38;;;;;;;15.00;9.30;;;1.50;99.90;;;;;;5044308;28;20408;-81
2022/02/27 00:32:04;;;;;;;10.50;7.50;;;1.50;99.90;;;;;;5046547;28;20179;-82
2022/02/27 00:34:31;;;;;;;19.23;8.70;;;1.60;99.90;;;;;;5037892;28;20246;-81
2022/02/27 00:36:56;;;;;;;10.82;7.75;;;1.40;99.90;;;;;;5046326;28;20182;-81
2022/02/27 00:39:22;;;;;;;12.30;8.40;;;1.30;99.90;;;;;;5040197;28;20184;-81
2022/02/27 00:41:47;;;;;;;14.10;7.40;;;1.20;99.90;;;;;;5043542;28;20261;-80
2022/02/27 00:44:13;;;;;;;12.40;7.50;;;1.30;99.90;;;;;;5044296;28;20749;-81
2022/02/27 00:46:39;;;;;;;18.83;8.30;;;1.00;99.90;;;;;;5046334;28;20172;-81
2022/02/27 00:49:04;;;;;;;12.30;8.60;;;1.40;99.90;;;;;;5045006;28;20673;-81
2022/02/27 00:51:31;;;;;;;17.17;9.10;;;1.30;99.90;;;;;;5050583;28;20224;-80
2022/02/27 00:53:57;;;;;;;13.23;8.50;;;1.20;99.90;;;;;;5048396;28;20220;-80
2022/02/27 00:56:23;;;;;;;9.57;7.50;;;1.20;99.90;;;;;;5050349;28;20652;-81
2022/02/27 00:58:50;;;;;;;13.20;7.80;;;1.30;99.90;;;;;;5050348;28;20183;-80
2022/02/27 01:01:20;;;;;;;12.98;7.45;;;1.20;99.90;;;;;;5034203;28;20678;-81
2022/02/27 01:03:46;;;;;;;14.50;8.80;;;1.20;99.90;;;;;;5032296;28;20191;-81
2022/02/27 01:06:13;;;;;;;9.13;7.28;;;1.20;99.90;;;;;;5048131;28;20694;-83
2022/02/27 01:08:39;;;;;;;10.18;8.52;;;1.30;99.90;;;;;;5032103;28;20179;-80
2022/02/27 01:11:04;;;;;;;8.83;7.93;;;0.90;99.90;;;;;;5030227;28;20282;-82
2022/02/27 01:13:30;;;;;;;7.93;6.60;;;1.10;99.90;;;;;;5049878;28;20607;-82
2022/02/27 01:15:55;;;;;;;21.83;7.90;;;1.10;99.90;;;;;;5048197;28;20195;-81
2022/02/27 01:18:21;;;;;;;13.90;7.33;;;1.10;99.90;;;;;;5049569;28;20183;-81
2022/02/27 01:20:47;;;;;;;11.37;7.40;;;0.90;99.90;;;;;;5048176;28;20191;-81
2022/02/27 01:23:12;;;;;;;9.33;7.10;;;0.90;99.90;;;;;;5049721;28;20471;-82
2022/02/27 01:25:38;;;;;;;12.63;7.40;;;0.90;99.90;;;;;;5047945;28;20230;-82
2022/02/27 01:28:04;;;;;;;10.63;8.13;;;0.80;99.90;;;;;;5031398;28;20179;-82
2022/02/27 01:30:30;;;;;;;10.97;6.23;;;0.20;99.90;;;;;;5047729;28;20199;-81
2022/02/27 01:32:55;;;;;;;9.23;7.50;;;0.80;99.90;;;;;;5049143;28;20479;-82
2022/02/27 01:35:21;;;;;;;9.53;7.87;;;0.70;99.90;;;;;;5047568;28;20709;-81
2022/02/27 01:37:47;;;;;;;10.37;8.13;;;;;;;;;;5048622;28;20594;-82
2022/02/27 01:40:13;;;;;;;13.98;7.80;;;0.70;99.90;;;;;;5031150;28;20211;-81
2022/02/27 01:42:38;;;;;;;10.93;7.30;;;0.70;99.90;;;;;;5029775;28;20222;-81
2022/02/27 01:45:06;;;;;;;20.60;7.63;;;;;;;;;;5049350;28;20215;-81
2022/02/27 01:47:35;;;;;;;14.70;7.10;;;;;;;;;;5047662;28;20199;-80
2022/02/27 01:50:02;;;;;;;8.32;6.88;;;;;;;;;;5049671;28;20191;-81
2022/02/27 01:52:30;;;;;;;10.45;6.97;;;;;;;;;;5048181;28;20191;-81
2022/02/27 01:54:58;;;;;;;9.80;8.20;;;;;;;;;;5049204;28;20271;-80
2022/02/27 01:57:25;;;;;;;10.15;6.38;;;;;;;;;;5045386;28;20256;-81
2022/02/27 01:59:53;;;;;;;9.10;5.95;;;;;;;;;;5049430;28;20186;-81
2022/02/27 02:02:19;;;;;;;9.75;7.38;;;;;;;;;;5047163;28;20183;-81
2022/02/27 02:04:46;;;;;;;7.20;6.70;;;;;;;;;;5045084;28;20264;-80
2022/02/27 02:07:12;;;;;;;14.48;7.50;;;0.60;99.90;;;;;;5049522;28;20175;-82
2022/02/27 02:09:38;;;;;;;10.32;6.75;;;0.60;99.90;;;;;;5021986;28;20197;-82
2022/02/27 02:12:06;;;;;;;12.23;7.60;;;0.70;99.90;;;;;;5048816;28;20187;-81
2022/02/27 02:14:32;;;;;;;8.48;5.68;;;0.60;99.90;;;;;;5046923;28;20442;-81
2022/02/27 02:16:57;;;;;;;11.13;5.73;;;0.50;99.90;;;;;;5048567;28;20191;-81
2022/02/27 02:19:24;;;;;;;9.17;6.77;;;0.60;99.90;;;;;;5047073;28;20278;-81
2022/02/27 02:21:52;;;;;;;12.60;7.35;;;0.60;99.90;;;;;;5048686;28;20183;-81
2022/02/27 02:24:18;;;;;;;12.13;7.38;;;0.90;99.90;;;;;;5028681;28;20211;-81
2022/02/27 02:26:45;;;;;;;11.07;7.35;;;0.40;99.90;;;;;;5030835;28;20267;-81
2022/02/27 02:29:15;;;;;;;6.90;5.25;;;0.40;99.90;;;;;;5046909;28;20195;-81
2022/02/27 02:31:42;;;;;;;6.70;5.78;;;0.40;99.90;;;;;;5029144;28;20180;-81
2022/02/27 02:34:12;;;;;;;10.65;6.82;;;0.40;99.90;;;;;;5045431;28;20272;-82
2022/02/27 02:36:39;;;;;;;14.65;6.70;;;0.40;99.90;;;;;;5028738;28;20257;-82
2022/02/27 02:39:08;;;;;;;12.15;7.13;;;0.60;99.90;;;;;;5046575;28;20187;-81
2022/02/27 02:41:33;;;;;;;9.23;6.50;;;0.40;99.90;;;;;;5048180;28;20198;-81
2022/02/27 02:44:00;;;;;;;6.30;5.80;;;0.40;99.90;;;;;;5042972;28;20187;-81
2022/02/27 02:46:25;;;;;;;7.13;6.35;;;0.40;99.90;;;;;;5047835;28;21051;-81
2022/02/27 02:48:51;;;;;;;8.83;6.50;;;0.30;99.90;;;;;;5036324;28;20203;-81
2022/02/27 02:51:17;;;;;;;7.03;6.40;;;;;;;;;;5027782;28;20183;-81
2022/02/27 02:53:44;;;;;;;8.77;6.75;;;0.30;99.90;;;;;;5028437;28;20446;-82
2022/02/27 02:56:10;;;;;;;8.43;7.63;;;0.30;99.90;;;;;;5036766;28;20211;-81
2022/02/27 02:58:40;;;;;;;15.60;8.00;;;0.40;99.90;;;;;;5034394;28;20201;-82
2022/02/27 03:01:08;;;;;;;8.02;6.72;;;0.40;99.90;;;;;;5040388;28;20202;-81
2022/02/27 03:03:35;;;;;;;10.25;6.28;;;0.40;99.90;;;;;;5037035;28;20598;-80
2022/02/27 03:06:03;;;;;;;7.93;5.85;;;0.40;99.90;;;;;;5029843;28;20214;-82
2022/02/27 03:08:29;;;;;;;7.35;5.70;;;0.30;99.90;;;;;;5045853;28;20211;-81
2022/02/27 03:10:55;;;;;;;10.53;5.20;;;0.30;99.90;;;;;;5047403;28;20192;-82
2022/02/27 03:13:21;;;;;;;6.53;5.90;;;0.40;99.90;;;;;;5045156;28;20495;-81
2022/02/27 03:15:47;;;;;;;6.07;5.57;;;0.40;99.90;;;;;;5048587;28;20191;-80
2022/02/27 03:18:14;;;;;;;5.20;4.70;;;0.50;99.90;;;;;;5030288;28;20286;-81
2022/02/27 03:20:40;;;;;;;12.55;6.22;;;0.50;99.90;;;;;;5033087;28;20206;-80
2022/02/27 03:23:06;;;;;;;8.35;4.97;;;0.60;99.90;;;;;;5048415;28;20198;-80
2022/02/27 03:25:32;;;;;;;10.20;5.20;;;0.70;99.90;;;;;;5048242;28;20250;-81
2022/02/27 03:27:57;;;;;;;5.37;4.93;;;0.70;99.90;;;;;;5048362;28;20218;-81
2022/02/27 03:30:23;;;;;;;9.23;5.30;;;0.80;99.90;;;;;;5045794;28;20210;-81
2022/02/27 03:35:24;;;;;;;6.47;4.25;;;0.90;99.90;;;;;;5012119;26;20227;-83
2022/02/27 03:37:50;;;;;;;16.03;5.30;;;0.90;99.90;;;;;;5027797;28;20199;-84
2022/02/27 03:40:26;;;;;;;7.70;4.67;;;0.90;99.90;;;;;;5008213;28;20192;-84
2022/02/27 03:42:55;;;;;;;14.45;5.13;;;1.00;99.90;;;;;;5002141;28;20207;-84
2022/02/27 03:45:21;;;;;;;10.57;4.80;;;1.00;99.90;;;;;;5007889;28;20215;-84
2022/02/27 03:47:51;;;;;;;10.13;4.50;;;;;;;;;;5008036;28;20202;-84
2022/02/27 03:50:18;;;;;;;8.48;4.65;;;;;;;;;;5009647;28;20278;-84
2022/02/27 03:52:48;;;;;;;5.88;4.35;;;;;;;;;;5008086;28;20202;-83
2022/02/27 03:55:16;;;;;;;6.13;4.50;;;;;;;;;;5008984;28;20590;-84
2022/02/27 03:57:43;;;;;;;7.28;4.72;;;;;;;;;;5007598;28;20196;-83
2022/02/27 04:00:13;;;;;;;5.88;4.50;;;;;;;;;;5009149;28;20246;-83
2022/02/27 04:02:41;;;;;;;8.80;4.70;;;;;;;;;;5007501;28;20192;-83
2022/02/27 04:05:08;;;;;;;13.60;5.20;;;;;;;;;;5009288;28;20219;-83
2022/02/27 04:07:35;;;;;;;7.05;5.30;;;;;;;;;;5008167;28;20242;-83
2022/02/27 04:10:06;;;;;;;9.75;5.30;;;;;;;;;;5009381;28;20210;-83
2022/02/27 04:12:33;;;;;;;6.95;5.28;;;;;;;;;;5007236;28;20321;-83
2022/02/27 04:15:00;;;;;;;4.47;3.88;;;;;;;;;;5009195;28;20198;-82
2022/02/27 04:17:27;;;;;;;7.15;5.22;;;;;;;;;;5007401;28;20202;-83
2022/02/27 04:19:57;;;;;;;6.15;5.45;;;;;;;;;;5008860;28;20187;-83
2022/02/27 04:25:35;;;;;;;6.57;4.90;;;;;;;;;;5018818;28;20835;-82
2022/02/27 04:28:06;;;;;;;6.35;5.47;;;;;;;;;;5008821;28;20261;-83
2022/02/27 04:30:48;;;;;;;12.13;6.82;;;;;;;;;;5006898;28;20316;-83
2022/02/27 04:33:18;;;;;;;6.72;5.40;;;;;;;;;;5026087;28;20379;-83
2022/02/27 04:35:48;;;;;;;6.60;6.00;;;;;;;;;;5035807;28;20291;-82
2022/02/27 04:38:15;;;;;;;15.00;5.60;;;;;;;;;;5024148;28;20176;-83
2022/02/27 04:40:45;;;;;;;17.23;6.68;;;;;;;;;;5024818;28;20278;-82
2022/02/27 04:43:12;;;;;;;6.00;5.50;;;;;;;;;;5026434;28;20179;-84
2022/02/27 04:45:42;;;;;;;8.27;5.43;;;;;;;;;;5006614;28;20207;-83
2022/02/27 04:48:10;;;;;;;6.95;5.50;;;;;;;;;;5008600;28;20394;-83
2022/02/27 04:50:38;;;;;;;12.82;5.93;;;;;;;;;;5003760;28;20201;-83
2022/02/27 04:53:07;;;;;;;7.95;5.60;;;;;;;;;;5000887;28;20646;-82
2022/02/27 04:55:34;;;;;;;8.32;6.82;;;;;;;;;;5006870;28;20423;-83
2022/02/27 04:58:04;;;;;;;8.20;6.38;;;;;;;;;;5009513;28;20677;-82
2022/02/27 05:00:32;;;;;;;7.13;5.90;;;;;;;;;;5022577;28;20607;-84
2022/02/27 05:02:59;;;;;;;9.80;5.78;;;;;;;;;;5001920;28;20179;-84
2022/02/27 05:05:26;;;;;;;6.75;5.70;;;;;;;;;;5040950;28;20211;-84
2022/02/27 05:07:53;;;;;;;7.45;6.15;;;;;;;;;;5027068;28;20183;-84
2022/02/27 05:10:20;;;;;;;6.15;5.40;;;;;;;;;;5024448;28;20198;-83
2022/02/27 05:12:48;;;;;;;8.07;5.63;;;0.50;99.90;;;;;;5008782;28;20179;-84
2022/02/27 05:15:14;;;;;;;5.57;5.05;;;0.50;99.90;;;;;;5006802;28;20741;-84
2022/02/27 05:17:40;;;;;;;8.93;6.20;;;0.40;99.90;;;;;;5026682;28;20200;-84
2022/02/27 05:20:07;;;;;;;9.27;4.70;;;0.50;99.90;;;;;;5008496;28;20192;-84
2022/02/27 05:22:34;;;;;;;5.10;4.75;;;0.30;99.90;;;;;;5006912;28;20383;-84
2022/02/27 05:25:02;;;;;;;13.65;4.95;;;0.50;99.90;;;;;;5008669;28;20261;-84
2022/02/27 05:27:28;;;;;;;8.68;5.80;;;0.40;99.90;;;;;;5016917;28;20235;-84
2022/02/27 05:29:54;;;;;;;6.80;5.20;;;0.40;99.90;;;;;;5023333;28;20219;-83
2022/02/27 05:32:20;;;;;;;6.20;4.93;;;0.40;99.90;;;;;;5025723;28;20189;-84
2022/02/27 05:34:46;;;;;;;4.33;3.97;;;;;;;;;;5002912;28;20738;-84
2022/02/27 05:37:16;;;;;;;5.87;4.00;;;0.40;99.90;;;;;;5045041;28;20195;-83
2022/02/27 05:39:44;;;;;;;5.28;5.03;;;0.40;99.90;;;;;;5028819;28;20393;-84
2022/02/27 05:42:13;;;;;;;13.25;5.85;;;0.40;99.90;;;;;;5011795;28;20273;-84
2022/02/27 05:44:46;;;;;;;9.27;5.65;;;0.50;99.90;;;;;;5004296;28;20575;-84
2022/02/27 05:47:34;;;;;;;5.35;4.93;;;;;;;;;;5012126;28;20199;-84
2022/02/27 05:50:01;;;;;;;9.32;4.18;;;;;;;;;;5028501;28;20205;-84
2022/02/27 05:52:30;;;;;;;12.00;4.90;;;;;;;;;;5044571;28;20267;-84
2022/02/27 05:55:07;;;;;;;12.00;5.93;;;;;;;;;;5017990;28;20207;-84
2022/02/27 05:57:36;;;;;;;5.93;5.13;;;;;;;;;;5011494;28;20194;-84
2022/02/27 06:00:06;;;;;;;10.13;6.22;;;;;;;;;;5043496;28;20220;-84
2022/02/27 06:02:38;;;;;;;5.90;4.72;;;;;;;;;;5003691;28;20184;-84
2022/02/27 06:05:10;;;;;;;9.07;5.53;;;;;;;;;;5029821;28;20250;-83
2022/02/27 06:07:43;;;;;;;10.10;6.05;;;;;;;;;;5011314;28;20552;-83
2022/02/27 06:10:10;;;;;;;10.90;5.80;;;;;;;;;;5024711;28;20282;-82
2022/02/27 06:12:37;;;;;;;9.00;6.05;;;;;;;;;;5044481;28;20184;-83
2022/02/27 06:15:06;;;;;;;8.25;5.20;;;;;;;;;;5029327;28;20281;-83
2022/02/27 06:17:34;;;;;;;7.38;5.82;;;;;;;;;;5004607;28;20197;-84
2022/02/27 06:20:00;;;;;;;17.33;5.82;;;;;;;;;;5009920;28;20188;-83
2022/02/27 06:22:28;;;;;;;9.18;6.43;;;;;;;;;;5010864;28;20187;-83
2022/02/27 06:24:56;;;;;;;6.20;5.40;;;;;;;;;;5042605;28;20253;-83
2022/02/27 06:27:37;;;;;;;8.75;4.63;;;;;;;;;;5010845;28;20195;-84
2022/02/27 06:30:04;;;;;;;8.02;6.57;;;;;;;;;;5007662;28;20195;-84
2022/02/27 06:32:30;;;;;;;8.45;4.63;;;;;;;;;;5043542;28;20188;-83
2022/02/27 06:35:02;;;;;;;7.15;6.28;;;;;;;;;;5015870;28;20219;-84
2022/02/27 06:37:29;;;;;;;11.38;5.03;;;;;;;;;;5028366;28;20615;-84
2022/02/27 06:40:01;;;;;;;6.38;5.68;;;;;;;;;;5009528;28;20184;-84
2022/02/27 06:42:28;;;;;;;8.70;5.10;;;;;;;;;;5024313;28;20215;-84
2022/02/27 06:44:54;;;;;;;9.52;6.07;;;;;;;;;;5007051;28;20249;-82
2022/02/27 06:47:21;;;;;;;15.50;7.60;;;;;;;;;;5027568;28;20172;-82
2022/02/27 06:49:48;;;;;;;9.85;6.55;;;;;;;;;;4690996;28;10000098;-82
2022/02/27 06:52:14;;;;;;;10.85;7.13;;;;;;;;;;5007260;28;20188;-83
2022/02/27 06:54:41;;;;;;;12.32;7.03;;;;;;;;;;5006079;28;20470;-82
2022/02/27 06:57:26;;;;;;;11.95;7.90;;;;;;;;;;5005846;28;20215;-83
2022/02/27 06:59:55;;;;;;;7.47;6.25;;;;;;;;;;4996244;28;20183;-82
2022/02/27 07:02:31;;;;;;;;;;;;;;;;;;;;;
2022/02/27 07:05:12;;;;;;;8.50;5.75;;;0.60;99.90;;;;;;5023785;28;20190;-84
2022/02/27 07:07:38;;;;;;;10.30;8.82;;;0.60;99.90;;;;;;5003864;28;20728;-83
2022/02/27 07:10:11;;;;;;;7.33;6.73;;;0.60;99.90;;;;;;5023563;28;20221;-84
2022/02/27 07:12:47;;;;;;;6.45;5.90;;;0.70;99.90;;;;;;5024160;28;20476;-84
2022/02/27 07:15:28;;;;;;;7.20;6.43;;;0.70;99.90;;;;;;5005148;28;20192;-84
2022/02/27 07:17:59;;;;;;;9.65;6.72;;;0.80;99.90;;;;;;5009233;28;20715;-84
2022/02/27 07:20:50;;;;;;;8.55;5.30;;;1.10;99.90;;;;;;5002744;28;20219;-84
2022/02/27 07:23:21;;;;;;;6.82;6.25;;;1.70;99.90;;;;;;5024274;28;20188;-83
2022/02/27 07:25:50;;;;;;;12.45;5.68;;;2.90;99.90;;;;;;5007942;28;20735;-84
2022/02/27 07:28:21;;;;;;;4.72;4.38;;;3.60;99.90;;;;;;5010264;28;20179;-84
2022/02/27 07:31:00;;;;;;;12.32;5.25;;;4.50;99.90;;;;;;5022114;28;20227;-83
2022/02/27 07:33:26;;;;;;;6.63;4.30;;;5.30;99.90;;;;;;5024820;28;20200;-83
2022/02/27 07:35:55;;;;;;;5.90;5.40;;;5.80;99.90;;;;;;5008109;28;20471;-83
2022/02/27 07:38:21;;;;;;;6.07;5.10;;;6.40;99.90;;;;;;5002169;28;20974;-83
2022/02/27 07:40:51;;;;;;;6.53;5.83;;;7.10;99.90;;;;;;5027747;28;20188;-83
2022/02/27 07:46:21;;;;;;;6.50;5.43;;;8.40;99.90;;;;;;5014407;28;20474;-83
2022/02/27 07:48:46;;;;;;;5.97;5.07;;;9.00;99.90;;;;;;5005516;28;20586;-84
2022/02/27 07:51:16;;;;;;;6.80;5.40;;;9.60;99.90;;;;;;5004642;28;20949;-84
2022/02/27 07:53:42;;;;;;;8.13;5.83;;;10.80;99.90;;;;;;5036480;28;20563;-85
2022/02/27 07:56:08;;;;;;;8.00;4.57;;;10.90;99.90;;;;;;5004825;28;20458;-83
2022/02/27 07:58:34;;;;;;;5.87;5.40;;;11.00;99.90;;;;;;4988372;28;20250;-84
2022/02/27 08:01:02;;;;;;;6.03;5.33;;;;;;;;;;5026919;28;20411;-84
2022/02/27 08:03:32;;;;;;;6.13;5.47;;;11.50;99.90;;;;;;4988438;28;20239;-84
2022/02/27 08:05:58;;;;;;;6.60;6.00;;;;;;;;;;5008785;28;20515;-84
2022/02/27 08:08:24;;;;;;;7.77;6.07;;;;;;;;;;5021363;28;20600;-84
2022/02/27 08:10:50;;;;;;;7.00;5.43;;;;;;;;;;5008529;28;20497;-84
2022/02/27 08:13:16;;;;;;;5.80;5.40;;;;;;;;;;4999744;28;20965;-85
2022/02/27 08:15:42;;;;;;;6.93;5.53;;;;;;;;;;5008452;28;21017;-83
2022/02/27 08:18:08;;;;;;;5.17;4.87;;;;;;;;;;5005670;28;20435;-82
2022/02/27 08:20:43;;;;;;;6.60;6.00;;;;;;;;;;5007711;28;20944;-83
2022/02/27 08:23:09;;;;;;;7.33;5.70;;;;;;;;;;4988882;28;20443;-83
2022/02/27 08:25:35;;;;;;;6.00;5.60;;;;;;;;;;5026170;28;20496;-84
2022/02/27 08:28:01;;;;;;;7.00;5.63;;;;;;;;;;5025923;28;20438;-83
2022/02/27 08:30:27;;;;;;;6.63;6.03;;;;;;;;;;5007503;28;20423;-83
2022/02/27 08:32:53;;;;;;;6.60;6.00;;;;;;;;;;5006133;28;20466;-83
2022/02/27 08:35:19;;;;;;;6.90;6.10;;;;;;;;;;4991578;28;20519;-84
2022/02/27 08:37:46;;;;;;;14.40;7.63;;;;;;;;;;5003584;28;20501;-83
2022/02/27 08:40:12;;;;;;;8.07;6.17;;;;;;;;;;5028546;28;20564;-85
2022/02/27 08:42:38;;;;;;;6.70;6.27;;;;;;;;;;4997565;28;20430;-86
2022/02/27 08:45:04;;;;;;;6.40;5.80;;;;;;;;;;4991957;28;20449;-85
2022/02/27 08:47:30;;;;;;;6.23;5.63;;;;;;;;;;5007488;28;20453;-85
2022/02/27 08:49:56;;;;;;;6.70;6.20;;;;;;;;;;5011063;28;20410;-84
2022/02/27 08:52:23;;;;;;;5.70;5.23;;;;;;;;;;4996686;28;20419;-84
2022/02/27 08:54:49;;;;;;;9.13;8.30;;;;;;;;;;5015094;28;20936;-85
2022/02/27 08:57:15;;;;;;;7.23;6.63;;;;;;;;;;5005410;28;20427;-86
2022/02/27 08:59:41;;;;;;;7.00;6.47;;;;;;;;;;5023296;28;20447;-85
2022/02/27 09:02:11;;;;;;;10.07;6.33;;;;;;;;;;5037039;28;20446;-85
2022/02/27 09:04:39;;;;;;;6.30;5.90;;;;;;;;;;5053612;28;20532;-85
2022/02/27 09:07:07;;;;;;;8.27;6.80;;;;;;;;;;4999445;28;20493;-84
2022/02/27 09:09:36;;;;;;;9.30;6.00;;;;;;;;;;5013230;28;21045;-83
2022/02/27 09:12:04;;;;;;;8.20;6.43;;;;;;;;;;5016654;28;20430;-82
2022/02/27 09:14:30;;;;;;;6.73;6.00;;;;;;;;;;5015844;28;20435;-85
2022/02/27 09:17:08;;;;;;;6.97;6.37;;;;;;;;;;5010651;28;20437;-85
2022/02/27 09:19:40;;;;;;;6.80;6.07;;;;;;;;;;5030071;28;20501;-85
2022/02/27 09:22:07;;;;;;;5.97;5.43;;;;;;;;;;5032227;28;20441;-84
2022/02/27 09:24:36;;;;;;;6.83;6.30;;;;;;;;;;5014493;28;20517;-85
2022/02/27 09:27:08;;;;;;;6.05;5.57;;;;;;;;;;4649530;28;9999875;-85
2022/02/27 09:29:38;;;;;;;6.00;5.30;;;;;;;;;;5011512;28;20249;-87
2022/02/27 09:32:04;;;;;;;6.23;5.63;;;;;;;;;;5010384;28;20631;-85
2022/02/27 09:34:30;;;;;;;5.90;5.40;;;;;;;;;;5028251;28;20470;-88
2022/02/27 09:36:59;;;;;;;9.50;5.80;;;;;;;;;;5044226;28;20548;-85
2022/02/27 09:39:27;;;;;;;8.80;5.20;;;;;;;;;;5010156;28;20795;-86
2022/02/27 09:41:54;;;;;;;4.50;4.20;;;;;;;;;;5008440;28;20434;-86
2022/02/27 09:44:21;;;;;;;4.73;4.30;;;;;;;;;;5014135;28;20418;-86
2022/02/27 09:46:48;;;;;;;8.83;4.80;;;;;;;;;;5011574;28;20480;-86
2022/02/27 09:51:45;;;;;;;4.30;3.90;;;;;;;;;;4969389;28;20806;-83
2022/02/27 09:54:13;;;;;;;10.03;4.97;;;;;;;;;;4987837;28;20476;-83
2022/02/27 09:56:40;;;;;;;3.13;2.77;;;;;;;;;;4966016;28;20484;-84
2022/02/27 09:59:06;;;;;;;2.10;2.00;;;;;;;;;;4951391;29;20805;-82
2022/02/27 10:01:32;;;;;;;2.27;2.17;;;;;;;;;;4950515;28;20485;-83
2022/02/27 10:06:53;;;;;;;2.60;2.40;;;;;;;;;;5005725;23;20756;-84
2022/02/27 10:09:26;;;;;;;3.33;2.27;;;;;;;;;;5013605;28;20411;-85
2022/02/27 10:11:52;;;;;;;1.80;1.80;;;;;;;;;;4992283;28;20952;-85
2022/02/27 10:14:27;;;;;;;2.50;2.30;;;;;;;;;;5010690;28;20414;-84
2022/02/27 10:17:04;;;;;;;4.80;2.73;;;;;;;;;;5008714;28;20446;-85
2022/02/27 10:19:32;;;;;;;4.50;2.50;;;;;;;;;;4660931;28;10000276;-85
2022/02/27 10:21:58;;;;;;;2.40;2.30;;;;;;;;;;4987783;28;20188;-85
2022/02/27 10:24:28;;;;;;;4.67;2.33;;;;;;;;;;4995257;28;20519;-84
2022/02/27 10:26:57;;;;;;;2.40;2.40;;;;;;;;;;4987917;28;20478;-84
2022/02/27 10:29:24;;;;;;;1.90;1.80;;;;;;;;;;5006446;28;20934;-86
2022/02/27 10:31:55;;;;;;;2.30;1.83;;;;;;;;;;5006041;28;20761;-85
2022/02/27 10:34:32;;;;;;;;;;;;;;;;;;;;;
2022/02/27 10:37:09;;;;;;;2.73;2.23;;;;;;;;;;5007764;28;20439;-84
2022/02/27 10:39:43;;;;;;;2.37;2.17;;;;;;;;;;4991817;28;20422;-84
2022/02/27 10:42:10;;;;;;;1.90;1.90;;;;;;;;;;4987802;28;20946;-84
2022/02/27 10:44:41;;;;;;;2.43;2.23;;;;;;;;;;4985412;28;20427;-84
2022/02/27 10:47:10;;;;;;;2.30;2.20;;;;;;;;;;5006545;28;20880;-81
2022/02/27 10:49:37;;;;;;;2.00;1.90;;;;;;;;;;4994771;28;20454;-85
2022/02/27 10:52:13;;;;;;;5.47;2.70;;;;;;;;;;5007179;28;20414;-83
2022/02/27 10:54:40;;;;;;;2.83;2.73;;;;;;;;;;4987369;28;20554;-83
2022/02/27 10:57:10;;;;;;;2.20;2.20;;;;;;;;;;4988565;28;20424;-85
2022/02/27 10:59:38;;;;;;;1.83;1.80;;;;;;;;;;4987375;28;20475;-84
2022/02/27 11:02:04;;;;;;;2.37;2.27;;;;;;;;;;4988471;28;20435;-85
2022/02/27 11:04:30;;;;;;;1.73;1.67;;;;;;;;;;5004443;28;20447;-85
2022/02/27 11:06:59;;;;;;;1.90;1.90;;;;;;;;;;5009606;28;20475;-84
2022/02/27 11:09:25;;;;;;;2.17;2.07;;;;;;;;;;5029267;28;20481;-84
2022/02/27 11:11:56;;;;;;;2.20;2.10;;;;;;;;;;5012014;28;20897;-82
2022/02/27 11:14:22;;;;;;;2.13;2.13;;;;;;;;;;5007354;28;20466;-84
2022/02/27 11:16:50;;;;;;;10.13;3.23;;;;;;;;;;5007746;28;20465;-85
2022/02/27 11:19:17;;;;;;;3.67;2.20;;;;;;;;;;5006604;28;20438;-85
2022/02/27 11:21:45;;;;;;;1.80;1.70;;;;;;;;;;5025033;28;20453;-84
2022/02/27 11:24:12;;;;;;;1.80;1.80;;;;;;;;;;5019752;28;20442;-84
2022/02/27 11:26:38;;;;;;;2.17;2.07;;;;;;;;;;5025572;28;20462;-84
2022/02/27 11:29:06;;;;;;;1.90;1.90;;;;;;;;;;5003709;28;20717;-85
2022/02/27 11:31:38;;;;;;;1.87;1.87;;;;;;;;;;5008398;28;20430;-84
2022/02/27 11:40:28;;;;;;;2.20;2.10;;;;;;;;;;5203801;23;21256;-83
2022/02/27 11:43:23;;;;;;;3.50;2.13;;;;;;;;;;5045648;28;20418;-84
2022/02/27 11:46:15;;;;;;;2.20;2.10;;;;;;;;;;5042012;28;20498;-84
2022/02/27 11:49:01;;;;;;;2.07;2.00;;;;;;;;;;5046028;28;20457;-85
2022/02/27 11:51:36;;;;;;;2.60;2.30;;;;;;;;;;5029696;28;20426;-83
2022/02/27 11:54:05;;;;;;;2.30;2.10;;;;;;;;;;5014279;28;20422;-84
2022/02/27 11:56:31;;;;;;;2.83;2.60;;;;;;;;;;5020153;28;20468;-85
2022/02/27 11:58:58;;;;;;;2.60;2.40;;;;;;;;;;5032431;28;20461;-85
2022/02/27 12:01:42;;;;;;;2.20;2.13;;;;;;;;;;5035221;28;20472;-86
2022/02/27 12:04:27;;;;;;;3.03;2.40;;;;;;;;;;5020437;28;20791;-85
2022/02/27 12:07:12;;;;;;;2.50;2.27;;;;;;;;;;5004650;28;20474;-82
2022/02/27 12:09:50;;;;;;;2.50;2.40;;;;;;;;;;5008996;28;20532;-84
2022/02/27 12:12:42;;;;;;;2.43;2.33;;;;;;;;;;5009321;28;20596;-85
2022/02/27 12:15:27;;;;;;;2.10;2.10;;;;;;;;;;4663622;28;9999802;-85
2022/02/27 12:18:04;;;;;;;2.03;2.03;;;;;;;;;;5023285;28;20434;-88
2022/02/27 12:20:54;;;;;;;2.33;2.33;;;;;;;;;;5017194;28;20531;-89
2022/02/27 12:23:26;;;;;;;2.27;2.17;;;;;;;;;;5019912;28;20734;-90
2022/02/27 12:25:57;;;;;;;2.03;1.93;;;;;;;;;;5012536;28;20490;-88
2022/02/27 12:28:47;;;;;;;2.40;2.30;;;;;;;;;;5021689;28;20419;-88
2022/02/27 12:31:16;;;;;;;3.33;3.13;;;;;;;;;;5023198;28;20745;-88
2022/02/27 12:33:43;;;;;;;3.07;2.87;;;;;;;;;;5012413;28;20442;-88
2022/02/27 12:36:09;;;;;;;2.33;2.23;;;;;;;;;;5011515;28;20495;-88
2022/02/27 12:38:46;;;;;;;2.73;2.00;;;;;;;;;;5010560;28;20474;-91
2022/02/27 12:41:25;;;;;;;2.17;2.17;;;;;;;;;;5005624;28;20435;-88
2022/02/27 12:43:51;;;;;;;3.03;2.80;;;;;;;;;;5018403;28;20489;-90
2022/02/27 12:46:17;;;;;;;2.60;2.50;;;;;;;;;;5008074;28;20485;-86
2022/02/27 12:51:46;;;;;;;2.03;2.00;;;;;;;;;;4971924;28;20422;-87
2022/02/27 12:54:12;;;;;;;1.67;1.67;;;;;;;;;;5025256;28;20482;-88
2022/02/27 12:56:39;;;;;;;2.70;2.60;;;;;;;;;;5025673;28;20526;-86
2022/02/27 12:59:05;;;;;;;2.30;2.20;;;;;;;;;;5000043;28;20439;-84
2022/02/27 13:01:33;;;;;;;12.13;7.60;;;;;;;;;;5021080;28;20935;-85
2022/02/27 13:04:01;;;;;;;2.30;2.20;;;;;;;;;;5000587;28;20446;-85
2022/02/27 13:06:27;;;;;;;2.40;2.40;;;;;;;;;;5003198;28;20887;-82
2022/02/27 13:08:53;;;;;;;2.00;2.00;;;;;;;;;;5002674;28;20439;-85
2022/02/27 13:11:38;;;;;;;2.33;2.17;;;;;;;;;;5003233;28;20646;-85
2022/02/27 13:14:05;;;;;;;2.30;2.17;;;;;;;;;;5024992;28;20846;-86
2022/02/27 13:16:38;;;;;;;1.80;1.70;;;;;;;;;;5034936;28;20453;-88
2022/02/27 13:19:05;;;;;;;3.17;2.80;;;;;;;;;;5008075;28;20439;-89
2022/02/27 13:21:31;;;;;;;2.10;2.00;;;;;;;;;;5025595;28;20909;-88
2022/02/27 13:23:58;;;;;;;2.67;2.57;;;;;;;;;;5005961;28;20470;-88
2022/02/27 13:26:25;;;;;;;2.40;2.30;;;;;;;;;;5009833;28;20477;-90
2022/02/27 13:28:54;;;;;;;2.90;2.70;;;;;;;;;;5004491;28;20426;-89
2022/02/27 13:31:21;;;;;;;2.50;2.40;;;;;;;;;;5006969;28;20492;-88
2022/02/27 13:33:51;;;;;;;2.10;1.97;;;;;;;;;;5009515;28;20427;-87
2022/02/27 13:36:18;;;;;;;2.10;2.10;;;;;;;;;;5003922;28;20467;-88
2022/02/27 13:38:47;;;;;;;3.13;2.50;;;;;;;;;;5009312;28;20526;-87
2022/02/27 13:41:13;;;;;;;2.60;2.50;;;;;;;;;;5014716;28;20429;-88
2022/02/27 13:43:43;;;;;;;2.50;2.30;;;;;;;;;;5011014;28;20480;-89
2022/02/27 13:46:09;;;;;;;2.80;2.73;;;;;;;;;;5010639;28;20488;-87
2022/02/27 13:48:37;;;;;;;2.73;2.53;;;;;;;;;;5026722;28;20426;-85
2022/02/27 13:51:04;;;;;;;2.00;2.00;;;;;;;;;;5031146;28;20446;-87
2022/02/27 13:53:32;;;;;;;3.20;2.90;;;;;;;;;;5025539;28;20427;-88
2022/02/27 13:56:09;;;;;;;3.13;2.83;;;;;;;;;;5008796;28;21029;-88
2022/02/27 13:58:44;;;;;;;3.17;2.97;;;;;;;;;;5010487;28;20462;-89
2022/02/27 14:01:19;;;;;;;2.90;2.70;;;;;;;;;;5033030;28;20406;-87
2022/02/27 14:03:46;;;;;;;2.83;2.73;;;;;;;;;;5029332;28;20583;-88
2022/02/27 14:06:33;;;;;;;2.40;2.30;;;;;;;;;;5012080;28;20488;-80
2022/02/27 14:09:01;;;;;;;2.33;2.13;;;;;;;;;;5010630;28;20492;-87
2022/02/27 14:11:28;;;;;;;2.53;2.43;;;;;;;;;;5031449;28;20750;-86
2022/02/27 14:13:56;;;;;;;2.37;2.17;;;;;;;;;;5013452;28;20416;-86
2022/02/27 14:16:36;;;;;;;2.87;2.67;;;;;;;;;;5013413;28;20422;-88
2022/02/27 14:19:08;;;;;;;2.50;2.30;;;;;;;;;;4668007;28;9999981;-87
2022/02/27 14:21:40;;;;;;;2.77;2.77;;;;;;;;;;5029573;28;20217;-87
2022/02/27 14:24:13;;;;;;;2.67;2.57;;;;;;;;;;5008484;28;20847;-86
2022/02/27 14:26:40;;;;;;;2.97;2.77;;;;;;;;;;5007574;28;21092;-86
2022/02/27 14:29:11;;;;;;;3.33;3.13;;;;;;;;;;5008223;28;20439;-87
2022/02/27 14:31:40;;;;;;;2.50;2.27;;;;;;;;;;5007969;28;20456;-84
2022/02/27 14:34:11;;;;;;;2.33;2.20;;;;;;;;;;5029554;28;20435;-88